sensor_id;sensor_type;location;lat;lon;timestamp;P1;durP1;ratioP1;P2;durP2;ratioP2
52798;SDS011;38667;42.872;74.622;2023-02-28T00:02:25;160.40;;;59.17;;
52798;SDS011;38667;42.872;74.622;2023-02-28T00:04:52;125.43;;;53.07;;
52798;SDS011;38667;42.872;74.622;2023-02-28T00:07:18;138.20;;;55.10;;
52798;SDS011;38667;42.872;74.622;2023-02-28T00:09:44;133.37;;;52.60;;
52798;SDS011;38667;42.872;74.622;2023-02-28T00:12:11;128.80;;;46.93;;
52798;SDS011;38667;42.872;74.622;2023-02-28T00:14:39;151.53;;;50.67;;
52798;SDS011;38667;42.872;74.622;2023-02-28T00:17:05;130.93;;;49.07;;
52798;SDS011;38667;42.872;74.622;2023-02-28T00:19:32;148.43;;;47.57;;
52798;SDS011;38667;42.872;74.622;2023-02-28T00:21:58;130.93;;;45.70;;
52798;SDS011;38667;42.872;74.622;2023-02-28T00:24:24;113.93;;;41.63;;
52798;SDS011;38667;42.872;74.622;2023-02-28T00:26:51;154.33;;;49.40;;
52798;SDS011;38667;42.872;74.622;2023-02-28T00:29:17;121.67;;;45.03;;
52798;SDS011;38667;42.872;74.622;2023-02-28T00:31:45;128.77;;;46.10;;
52798;SDS011;38667;42.872;74.622;2023-02-28T00:34:11;127.33;;;43.07;;
52798;SDS011;38667;42.872;74.622;2023-02-28T00:36:37;119.93;;;42.97;;
52798;SDS011;38667;42.872;74.622;2023-02-28T00:39:04;223.03;;;48.70;;
52798;SDS011;38667;42.872;74.622;2023-02-28T00:41:30;113.50;;;40.77;;
52798;SDS011;38667;42.872;74.622;2023-02-28T00:43:56;117.80;;;40.20;;
52798;SDS011;38667;42.872;74.622;2023-02-28T00:46:23;118.90;;;43.90;;
52798;SDS011;38667;42.872;74.622;2023-02-28T00:48:50;129.43;;;44.07;;
52798;SDS011;38667;42.872;74.622;2023-02-28T00:51:17;115.07;;;44.67;;
52798;SDS011;38667;42.872;74.622;2023-02-28T00:53:43;102.13;;;42.37;;
52798;SDS011;38667;42.872;74.622;2023-02-28T00:56:09;129.73;;;47.23;;
52798;SDS011;38667;42.872;74.622;2023-02-28T00:58:36;120.20;;;43.67;;
52798;SDS011;38667;42.872;74.622;2023-02-28T01:01:02;135.17;;;45.47;;
52798;SDS011;38667;42.872;74.622;2023-02-28T01:03:28;136.73;;;44.97;;
52798;SDS011;38667;42.872;74.622;2023-02-28T01:05:56;117.70;;;43.83;;
52798;SDS011;38667;42.872;74.622;2023-02-28T01:08:23;129.67;;;46.37;;
52798;SDS011;38667;42.872;74.622;2023-02-28T01:10:49;119.67;;;43.60;;
52798;SDS011;38667;42.872;74.622;2023-02-28T01:13:15;140.17;;;44.97;;
52798;SDS011;38667;42.872;74.622;2023-02-28T01:15:43;155.87;;;45.20;;
52798;SDS011;38667;42.872;74.622;2023-02-28T01:18:14;137.83;;;45.67;;
52798;SDS011;38667;42.872;74.622;2023-02-28T01:20:40;125.00;;;45.53;;
52798;SDS011;38667;42.872;74.622;2023-02-28T01:23:08;131.83;;;43.10;;
52798;SDS011;38667;42.872;74.622;2023-02-28T01:25:34;124.73;;;44.07;;
52798;SDS011;38667;42.872;74.622;2023-02-28T01:28:01;124.70;;;45.73;;
52798;SDS011;38667;42.872;74.622;2023-02-28T01:30:27;173.30;;;50.10;;
52798;SDS011;38667;42.872;74.622;2023-02-28T01:32:53;188.50;;;60.70;;
52798;SDS011;38667;42.872;74.622;2023-02-28T01:35:20;204.33;;;62.63;;
52798;SDS011;38667;42.872;74.622;2023-02-28T01:37:46;177.63;;;55.97;;
52798;SDS011;38667;42.872;74.622;2023-02-28T01:40:14;169.27;;;53.90;;
52798;SDS011;38667;42.872;74.622;2023-02-28T01:42:41;162.47;;;54.87;;
52798;SDS011;38667;42.872;74.622;2023-02-28T01:45:16;165.20;;;54.33;;
52798;SDS011;38667;42.872;74.622;2023-02-28T01:47:47;172.10;;;53.70;;
52798;SDS011;38667;42.872;74.622;2023-02-28T01:50:16;156.80;;;51.60;;
52798;SDS011;38667;42.872;74.622;2023-02-28T01:52:45;166.77;;;52.93;;
52798;SDS011;38667;42.872;74.622;2023-02-28T01:55:15;155.77;;;53.23;;
52798;SDS011;38667;42.872;74.622;2023-02-28T01:57:45;151.33;;;53.17;;
52798;SDS011;38667;42.872;74.622;2023-02-28T02:00:16;162.37;;;54.80;;
52798;SDS011;38667;42.872;74.622;2023-02-28T02:02:45;164.10;;;57.17;;
52798;SDS011;38667;42.872;74.622;2023-02-28T02:05:14;158.10;;;57.17;;
52798;SDS011;38667;42.872;74.622;2023-02-28T02:07:43;179.47;;;57.63;;
52798;SDS011;38667;42.872;74.622;2023-02-28T02:10:13;166.17;;;56.47;;
52798;SDS011;38667;42.872;74.622;2023-02-28T02:12:46;153.67;;;54.57;;
52798;SDS011;38667;42.872;74.622;2023-02-28T02:15:24;156.23;;;54.13;;
52798;SDS011;38667;42.872;74.622;2023-02-28T02:17:56;167.13;;;56.27;;
52798;SDS011;38667;42.872;74.622;2023-02-28T02:23:29;165.93;;;55.33;;
52798;SDS011;38667;42.872;74.622;2023-02-28T02:26:18;142.33;;;49.87;;
52798;SDS011;38667;42.872;74.622;2023-02-28T02:35:13;173.80;;;56.07;;
52798;SDS011;38667;42.872;74.622;2023-02-28T02:37:43;173.47;;;58.40;;
52798;SDS011;38667;42.872;74.622;2023-02-28T02:40:16;190.40;;;60.60;;
52798;SDS011;38667;42.872;74.622;2023-02-28T02:42:45;194.20;;;63.87;;
52798;SDS011;38667;42.872;74.622;2023-02-28T02:45:16;199.83;;;64.57;;
52798;SDS011;38667;42.872;74.622;2023-02-28T02:47:48;199.80;;;64.07;;
52798;SDS011;38667;42.872;74.622;2023-02-28T02:50:17;184.43;;;65.80;;
52798;SDS011;38667;42.872;74.622;2023-02-28T02:52:49;210.60;;;64.67;;
52798;SDS011;38667;42.872;74.622;2023-02-28T02:55:18;194.57;;;69.67;;
52798;SDS011;38667;42.872;74.622;2023-02-28T02:57:48;174.67;;;65.17;;
52798;SDS011;38667;42.872;74.622;2023-02-28T03:00:18;188.53;;;64.13;;
52798;SDS011;38667;42.872;74.622;2023-02-28T03:02:48;177.77;;;65.03;;
52798;SDS011;38667;42.872;74.622;2023-02-28T03:05:19;178.97;;;64.30;;
52798;SDS011;38667;42.872;74.622;2023-02-28T03:07:49;162.90;;;63.17;;
52798;SDS011;38667;42.872;74.622;2023-02-28T03:10:32;190.00;;;61.77;;
52798;SDS011;38667;42.872;74.622;2023-02-28T03:18:59;174.00;;;63.90;;
52798;SDS011;38667;42.872;74.622;2023-02-28T03:21:52;207.73;;;67.23;;
52798;SDS011;38667;42.872;74.622;2023-02-28T03:24:29;203.10;;;70.73;;
52798;SDS011;38667;42.872;74.622;2023-02-28T03:27:03;207.53;;;69.73;;
52798;SDS011;38667;42.872;74.622;2023-02-28T03:29:33;212.83;;;73.37;;
52798;SDS011;38667;42.872;74.622;2023-02-28T03:32:03;218.67;;;79.67;;
52798;SDS011;38667;42.872;74.622;2023-02-28T03:34:36;204.10;;;78.33;;
52798;SDS011;38667;42.872;74.622;2023-02-28T03:37:09;229.17;;;80.77;;
52798;SDS011;38667;42.872;74.622;2023-02-28T03:39:38;206.73;;;73.83;;
52798;SDS011;38667;42.872;74.622;2023-02-28T03:42:09;201.90;;;72.27;;
52798;SDS011;38667;42.872;74.622;2023-02-28T03:44:39;176.23;;;67.73;;
52798;SDS011;38667;42.872;74.622;2023-02-28T03:47:08;179.97;;;69.67;;
52798;SDS011;38667;42.872;74.622;2023-02-28T03:49:39;183.70;;;69.53;;
52798;SDS011;38667;42.872;74.622;2023-02-28T03:52:11;170.67;;;62.67;;
52798;SDS011;38667;42.872;74.622;2023-02-28T03:54:39;151.67;;;58.23;;
52798;SDS011;38667;42.872;74.622;2023-02-28T03:57:11;145.63;;;58.97;;
52798;SDS011;38667;42.872;74.622;2023-02-28T03:59:43;144.80;;;56.87;;
52798;SDS011;38667;42.872;74.622;2023-02-28T04:02:13;156.70;;;60.13;;
52798;SDS011;38667;42.872;74.622;2023-02-28T04:04:39;156.97;;;60.67;;
52798;SDS011;38667;42.872;74.622;2023-02-28T04:07:06;161.43;;;61.53;;
52798;SDS011;38667;42.872;74.622;2023-02-28T04:09:35;150.63;;;59.00;;
52798;SDS011;38667;42.872;74.622;2023-02-28T04:12:02;150.10;;;62.83;;
52798;SDS011;38667;42.872;74.622;2023-02-28T04:14:28;135.20;;;57.80;;
52798;SDS011;38667;42.872;74.622;2023-02-28T04:16:55;152.53;;;58.67;;
52798;SDS011;38667;42.872;74.622;2023-02-28T04:19:21;142.37;;;55.10;;
52798;SDS011;38667;42.872;74.622;2023-02-28T04:21:47;144.30;;;57.97;;
52798;SDS011;38667;42.872;74.622;2023-02-28T04:24:15;160.53;;;56.87;;
52798;SDS011;38667;42.872;74.622;2023-02-28T04:26:45;138.60;;;53.50;;
52798;SDS011;38667;42.872;74.622;2023-02-28T04:29:13;133.57;;;51.93;;
52798;SDS011;38667;42.872;74.622;2023-02-28T04:31:43;119.57;;;49.78;;
52798;SDS011;38667;42.872;74.622;2023-02-28T04:34:10;130.33;;;52.00;;
52798;SDS011;38667;42.872;74.622;2023-02-28T04:36:36;110.67;;;46.27;;
52798;SDS011;38667;42.872;74.622;2023-02-28T04:39:02;147.40;;;48.70;;
52798;SDS011;38667;42.872;74.622;2023-02-28T04:41:29;158.47;;;54.13;;
52798;SDS011;38667;42.872;74.622;2023-02-28T04:43:57;143.85;;;55.17;;
52798;SDS011;38667;42.872;74.622;2023-02-28T04:46:23;181.15;;;61.55;;
52798;SDS011;38667;42.872;74.622;2023-02-28T04:48:49;152.70;;;62.10;;
52798;SDS011;38667;42.872;74.622;2023-02-28T04:51:17;150.88;;;59.45;;
52798;SDS011;38667;42.872;74.622;2023-02-28T04:53:44;166.23;;;58.25;;
52798;SDS011;38667;42.872;74.622;2023-02-28T04:56:11;155.15;;;59.38;;
52798;SDS011;38667;42.872;74.622;2023-02-28T04:58:38;159.43;;;58.45;;
52798;SDS011;38667;42.872;74.622;2023-02-28T05:01:07;141.02;;;55.13;;
52798;SDS011;38667;42.872;74.622;2023-02-28T05:03:45;144.90;;;54.20;;
52798;SDS011;38667;42.872;74.622;2023-02-28T05:06:11;161.93;;;54.35;;
52798;SDS011;38667;42.872;74.622;2023-02-28T05:08:38;148.38;;;53.85;;
52798;SDS011;38667;42.872;74.622;2023-02-28T05:11:06;163.23;;;58.45;;
52798;SDS011;38667;42.872;74.622;2023-02-28T05:13:37;159.60;;;61.75;;
52798;SDS011;38667;42.872;74.622;2023-02-28T05:16:03;153.80;;;62.08;;
52798;SDS011;38667;42.872;74.622;2023-02-28T05:18:32;191.20;;;64.15;;
52798;SDS011;38667;42.872;74.622;2023-02-28T05:20:58;182.10;;;67.15;;
52798;SDS011;38667;42.872;74.622;2023-02-28T05:23:25;165.30;;;63.80;;
52798;SDS011;38667;42.872;74.622;2023-02-28T05:25:52;163.23;;;62.47;;
52798;SDS011;38667;42.872;74.622;2023-02-28T05:28:18;177.95;;;64.97;;
52798;SDS011;38667;42.872;74.622;2023-02-28T05:30:44;178.55;;;66.20;;
52798;SDS011;38667;42.872;74.622;2023-02-28T05:33:12;191.07;;;70.13;;
52798;SDS011;38667;42.872;74.622;2023-02-28T05:35:39;154.10;;;63.42;;
52798;SDS011;38667;42.872;74.622;2023-02-28T05:38:06;184.73;;;69.00;;
52798;SDS011;38667;42.872;74.622;2023-02-28T05:40:32;193.55;;;69.75;;
52798;SDS011;38667;42.872;74.622;2023-02-28T05:42:59;176.30;;;68.28;;
52798;SDS011;38667;42.872;74.622;2023-02-28T05:45:25;150.82;;;62.88;;
52798;SDS011;38667;42.872;74.622;2023-02-28T05:47:53;161.18;;;64.53;;
52798;SDS011;38667;42.872;74.622;2023-02-28T05:50:21;174.13;;;69.78;;
52798;SDS011;38667;42.872;74.622;2023-02-28T05:52:48;212.23;;;75.95;;
52798;SDS011;38667;42.872;74.622;2023-02-28T05:55:15;177.25;;;73.90;;
52798;SDS011;38667;42.872;74.622;2023-02-28T05:57:41;214.23;;;80.05;;
52798;SDS011;38667;42.872;74.622;2023-02-28T06:00:08;216.20;;;79.25;;
52798;SDS011;38667;42.872;74.622;2023-02-28T06:02:35;193.15;;;76.38;;
52798;SDS011;38667;42.872;74.622;2023-02-28T06:05:03;193.43;;;75.72;;
52798;SDS011;38667;42.872;74.622;2023-02-28T06:07:32;181.93;;;76.07;;
52798;SDS011;38667;42.872;74.622;2023-02-28T06:09:58;199.55;;;78.72;;
52798;SDS011;38667;42.872;74.622;2023-02-28T06:12:24;195.02;;;75.50;;
52798;SDS011;38667;42.872;74.622;2023-02-28T06:14:51;191.25;;;76.80;;
52798;SDS011;38667;42.872;74.622;2023-02-28T06:17:17;205.48;;;77.22;;
52798;SDS011;38667;42.872;74.622;2023-02-28T06:19:43;162.90;;;72.63;;
52798;SDS011;38667;42.872;74.622;2023-02-28T06:22:09;172.32;;;72.13;;
52798;SDS011;38667;42.872;74.622;2023-02-28T06:24:40;175.95;;;73.82;;
52798;SDS011;38667;42.872;74.622;2023-02-28T06:27:06;180.32;;;74.60;;
52798;SDS011;38667;42.872;74.622;2023-02-28T06:29:33;182.73;;;81.28;;
52798;SDS011;38667;42.872;74.622;2023-02-28T06:31:59;180.57;;;80.80;;
52798;SDS011;38667;42.872;74.622;2023-02-28T06:34:26;172.05;;;77.47;;
52798;SDS011;38667;42.872;74.622;2023-02-28T06:36:52;173.65;;;78.15;;
52798;SDS011;38667;42.872;74.622;2023-02-28T06:39:19;170.65;;;79.88;;
52798;SDS011;38667;42.872;74.622;2023-02-28T06:41:46;178.75;;;78.18;;
52798;SDS011;38667;42.872;74.622;2023-02-28T06:44:13;166.77;;;80.80;;
52798;SDS011;38667;42.872;74.622;2023-02-28T06:46:41;185.80;;;81.70;;
52798;SDS011;38667;42.872;74.622;2023-02-28T06:49:08;202.80;;;81.55;;
52798;SDS011;38667;42.872;74.622;2023-02-28T06:51:34;168.48;;;77.63;;
52798;SDS011;38667;42.872;74.622;2023-02-28T06:54:01;173.90;;;77.22;;
52798;SDS011;38667;42.872;74.622;2023-02-28T06:56:28;183.40;;;77.00;;
52798;SDS011;38667;42.872;74.622;2023-02-28T06:58:56;175.15;;;76.93;;
52798;SDS011;38667;42.872;74.622;2023-02-28T07:01:22;188.00;;;84.18;;
52798;SDS011;38667;42.872;74.622;2023-02-28T07:03:49;175.23;;;88.32;;
52798;SDS011;38667;42.872;74.622;2023-02-28T07:06:15;207.68;;;85.30;;
52798;SDS011;38667;42.872;74.622;2023-02-28T07:08:41;167.25;;;71.80;;
52798;SDS011;38667;42.872;74.622;2023-02-28T07:11:08;173.98;;;78.18;;
52798;SDS011;38667;42.872;74.622;2023-02-28T07:13:34;169.85;;;78.13;;
52798;SDS011;38667;42.872;74.622;2023-02-28T07:16:03;170.30;;;79.28;;
52798;SDS011;38667;42.872;74.622;2023-02-28T07:18:31;159.63;;;79.90;;
52798;SDS011;38667;42.872;74.622;2023-02-28T07:20:58;157.40;;;78.55;;
52798;SDS011;38667;42.872;74.622;2023-02-28T07:23:26;180.02;;;79.95;;
52798;SDS011;38667;42.872;74.622;2023-02-28T07:25:52;167.00;;;79.70;;
52798;SDS011;38667;42.872;74.622;2023-02-28T07:28:19;182.45;;;81.38;;
52798;SDS011;38667;42.872;74.622;2023-02-28T07:30:45;163.60;;;74.88;;
52798;SDS011;38667;42.872;74.622;2023-02-28T07:33:13;157.77;;;78.47;;
52798;SDS011;38667;42.872;74.622;2023-02-28T07:35:40;149.65;;;75.50;;
52798;SDS011;38667;42.872;74.622;2023-02-28T07:38:06;145.30;;;72.85;;
52798;SDS011;38667;42.872;74.622;2023-02-28T07:40:33;164.45;;;74.60;;
52798;SDS011;38667;42.872;74.622;2023-02-28T07:42:59;150.15;;;71.63;;
52798;SDS011;38667;42.872;74.622;2023-02-28T07:45:26;159.73;;;74.47;;
52798;SDS011;38667;42.872;74.622;2023-02-28T07:47:53;164.88;;;74.68;;
52798;SDS011;38667;42.872;74.622;2023-02-28T07:50:21;171.52;;;75.13;;
52798;SDS011;38667;42.872;74.622;2023-02-28T07:52:47;149.50;;;67.47;;
52798;SDS011;38667;42.872;74.622;2023-02-28T07:55:14;165.57;;;69.43;;
52798;SDS011;38667;42.872;74.622;2023-02-28T07:57:40;163.80;;;70.50;;
52798;SDS011;38667;42.872;74.622;2023-02-28T08:00:07;140.18;;;66.63;;
52798;SDS011;38667;42.872;74.622;2023-02-28T08:02:35;152.20;;;61.08;;
52798;SDS011;38667;42.872;74.622;2023-02-28T08:05:02;125.88;;;59.17;;
52798;SDS011;38667;42.872;74.622;2023-02-28T08:07:30;119.50;;;52.28;;
52798;SDS011;38667;42.872;74.622;2023-02-28T08:09:56;114.70;;;56.45;;
52798;SDS011;38667;42.872;74.622;2023-02-28T08:12:23;121.28;;;46.58;;
52798;SDS011;38667;42.872;74.622;2023-02-28T08:14:49;96.85;;;39.72;;
52798;SDS011;38667;42.872;74.622;2023-02-28T08:17:15;82.68;;;34.58;;
52798;SDS011;38667;42.872;74.622;2023-02-28T08:19:44;84.20;;;31.92;;
52798;SDS011;38667;42.872;74.622;2023-02-28T08:22:11;72.65;;;30.35;;
52798;SDS011;38667;42.872;74.622;2023-02-28T08:24:39;89.00;;;31.27;;
52798;SDS011;38667;42.872;74.622;2023-02-28T08:27:06;96.20;;;32.40;;
52798;SDS011;38667;42.872;74.622;2023-02-28T08:29:33;75.70;;;30.65;;
52798;SDS011;38667;42.872;74.622;2023-02-28T08:31:59;51.78;;;27.60;;
52798;SDS011;38667;42.872;74.622;2023-02-28T08:34:25;49.38;;;26.27;;
52798;SDS011;38667;42.872;74.622;2023-02-28T08:36:51;62.00;;;27.08;;
52798;SDS011;38667;42.872;74.622;2023-02-28T08:39:18;46.45;;;24.52;;
52798;SDS011;38667;42.872;74.622;2023-02-28T08:41:46;41.13;;;22.05;;
52798;SDS011;38667;42.872;74.622;2023-02-28T08:44:12;40.03;;;20.73;;
52798;SDS011;38667;42.872;74.622;2023-02-28T08:46:38;51.10;;;21.63;;
52798;SDS011;38667;42.872;74.622;2023-02-28T08:49:05;83.63;;;25.55;;
52798;SDS011;38667;42.872;74.622;2023-02-28T08:51:31;38.65;;;21.77;;
52798;SDS011;38667;42.872;74.622;2023-02-28T08:53:58;49.20;;;23.35;;
52798;SDS011;38667;42.872;74.622;2023-02-28T08:56:26;51.15;;;24.08;;
52798;SDS011;38667;42.872;74.622;2023-02-28T08:58:54;52.40;;;23.17;;
52798;SDS011;38667;42.872;74.622;2023-02-28T09:01:22;64.90;;;21.05;;
52798;SDS011;38667;42.872;74.622;2023-02-28T09:03:50;52.08;;;19.83;;
52798;SDS011;38667;42.872;74.622;2023-02-28T09:06:17;44.13;;;18.75;;
52798;SDS011;38667;42.872;74.622;2023-02-28T09:08:45;42.10;;;17.85;;
52798;SDS011;38667;42.872;74.622;2023-02-28T09:11:11;50.58;;;18.65;;
52798;SDS011;38667;42.872;74.622;2023-02-28T09:13:38;53.67;;;20.70;;
52798;SDS011;38667;42.872;74.622;2023-02-28T09:16:07;42.80;;;20.88;;
52798;SDS011;38667;42.872;74.622;2023-02-28T09:18:35;56.00;;;20.67;;
52798;SDS011;38667;42.872;74.622;2023-02-28T09:21:02;51.70;;;19.98;;
52798;SDS011;38667;42.872;74.622;2023-02-28T09:23:30;42.13;;;19.45;;
52798;SDS011;38667;42.872;74.622;2023-02-28T09:25:56;46.40;;;20.85;;
52798;SDS011;38667;42.872;74.622;2023-02-28T09:28:22;61.55;;;27.50;;
52798;SDS011;38667;42.872;74.622;2023-02-28T09:30:49;81.35;;;28.27;;
52798;SDS011;38667;42.872;74.622;2023-02-28T09:33:19;53.95;;;24.92;;
52798;SDS011;38667;42.872;74.622;2023-02-28T09:35:47;50.00;;;23.70;;
52798;SDS011;38667;42.872;74.622;2023-02-28T09:38:13;46.15;;;22.90;;
52798;SDS011;38667;42.872;74.622;2023-02-28T09:40:42;53.97;;;23.15;;
52798;SDS011;38667;42.872;74.622;2023-02-28T09:43:14;56.50;;;22.63;;
52798;SDS011;38667;42.872;74.622;2023-02-28T09:45:42;49.83;;;22.80;;
52798;SDS011;38667;42.872;74.622;2023-02-28T09:48:14;59.22;;;23.58;;
52798;SDS011;38667;42.872;74.622;2023-02-28T09:50:46;43.97;;;22.85;;
52798;SDS011;38667;42.872;74.622;2023-02-28T09:53:18;46.30;;;21.30;;
52798;SDS011;38667;42.872;74.622;2023-02-28T09:55:48;53.15;;;21.15;;
52798;SDS011;38667;42.872;74.622;2023-02-28T09:58:20;63.35;;;23.27;;
52798;SDS011;38667;42.872;74.622;2023-02-28T10:00:54;60.30;;;22.38;;
52798;SDS011;38667;42.872;74.622;2023-02-28T10:03:25;52.92;;;23.15;;
52798;SDS011;38667;42.872;74.622;2023-02-28T10:05:58;51.13;;;22.30;;
52798;SDS011;38667;42.872;74.622;2023-02-28T10:08:34;57.92;;;22.52;;
52798;SDS011;38667;42.872;74.622;2023-02-28T10:11:06;58.20;;;23.00;;
52798;SDS011;38667;42.872;74.622;2023-02-28T10:13:34;51.85;;;21.75;;
52798;SDS011;38667;42.872;74.622;2023-02-28T10:16:05;57.83;;;22.55;;
52798;SDS011;38667;42.872;74.622;2023-02-28T10:18:39;50.60;;;21.30;;
52798;SDS011;38667;42.872;74.622;2023-02-28T10:21:11;54.97;;;23.60;;
52798;SDS011;38667;42.872;74.622;2023-02-28T10:23:45;59.95;;;22.05;;
52798;SDS011;38667;42.872;74.622;2023-02-28T10:26:14;60.30;;;22.60;;
52798;SDS011;38667;42.872;74.622;2023-02-28T10:28:41;55.92;;;23.45;;
52798;SDS011;38667;42.872;74.622;2023-02-28T10:31:09;58.17;;;21.58;;
52798;SDS011;38667;42.872;74.622;2023-02-28T10:33:39;64.22;;;23.60;;
52798;SDS011;38667;42.872;74.622;2023-02-28T10:36:08;57.30;;;23.67;;
52798;SDS011;38667;42.872;74.622;2023-02-28T10:38:40;57.55;;;23.40;;
52798;SDS011;38667;42.872;74.622;2023-02-28T10:41:07;51.10;;;23.23;;
52798;SDS011;38667;42.872;74.622;2023-02-28T10:43:35;75.10;;;27.20;;
52798;SDS011;38667;42.872;74.622;2023-02-28T10:46:03;55.65;;;23.75;;
52798;SDS011;38667;42.872;74.622;2023-02-28T10:48:37;54.72;;;24.13;;
52798;SDS011;38667;42.872;74.622;2023-02-28T10:51:05;62.40;;;23.35;;
52798;SDS011;38667;42.872;74.622;2023-02-28T10:53:36;60.88;;;24.33;;
52798;SDS011;38667;42.872;74.622;2023-02-28T10:56:14;79.55;;;25.15;;
52798;SDS011;38667;42.872;74.622;2023-02-28T10:58:46;60.67;;;24.38;;
52798;SDS011;38667;42.872;74.622;2023-02-28T11:01:16;62.30;;;25.02;;
52798;SDS011;38667;42.872;74.622;2023-02-28T11:03:43;57.55;;;22.48;;
52798;SDS011;38667;42.872;74.622;2023-02-28T11:06:13;67.82;;;24.17;;
52798;SDS011;38667;42.872;74.622;2023-02-28T11:08:47;72.50;;;25.27;;
52798;SDS011;38667;42.872;74.622;2023-02-28T11:11:16;78.85;;;26.00;;
52798;SDS011;38667;42.872;74.622;2023-02-28T11:13:44;75.00;;;29.60;;
52798;SDS011;38667;42.872;74.622;2023-02-28T11:16:12;67.28;;;24.98;;
52798;SDS011;38667;42.872;74.622;2023-02-28T11:18:40;61.88;;;24.27;;
52798;SDS011;38667;42.872;74.622;2023-02-28T11:21:15;53.35;;;22.75;;
52798;SDS011;38667;42.872;74.622;2023-02-28T11:23:45;58.72;;;23.98;;
52798;SDS011;38667;42.872;74.622;2023-02-28T11:26:14;66.43;;;23.88;;
52798;SDS011;38667;42.872;74.622;2023-02-28T11:28:41;78.53;;;26.92;;
52798;SDS011;38667;42.872;74.622;2023-02-28T11:31:17;59.63;;;24.33;;
52798;SDS011;38667;42.872;74.622;2023-02-28T11:33:44;97.47;;;29.38;;
52798;SDS011;38667;42.872;74.622;2023-02-28T11:36:13;94.38;;;33.00;;
52798;SDS011;38667;42.872;74.622;2023-02-28T11:38:41;92.25;;;33.15;;
52798;SDS011;38667;42.872;74.622;2023-02-28T11:41:13;103.70;;;37.17;;
52798;SDS011;38667;42.872;74.622;2023-02-28T11:44:00;76.43;;;26.40;;
52798;SDS011;38667;42.872;74.622;2023-02-28T11:46:47;80.20;;;29.30;;
52798;SDS011;38667;42.872;74.622;2023-02-28T11:49:25;84.90;;;30.45;;
52798;SDS011;38667;42.872;74.622;2023-02-28T11:51:59;55.03;;;22.33;;
52798;SDS011;38667;42.872;74.622;2023-02-28T11:54:29;70.72;;;25.75;;
52798;SDS011;38667;42.872;74.622;2023-02-28T11:57:13;73.47;;;27.75;;
52798;SDS011;38667;42.872;74.622;2023-02-28T11:59:55;105.68;;;33.55;;
52798;SDS011;38667;42.872;74.622;2023-02-28T12:02:33;89.53;;;29.38;;
52798;SDS011;38667;42.872;74.622;2023-02-28T12:05:20;72.60;;;28.95;;
52798;SDS011;38667;42.872;74.622;2023-02-28T12:07:57;69.22;;;29.77;;
52798;SDS011;38667;42.872;74.622;2023-02-28T12:10:35;102.88;;;33.42;;
52798;SDS011;38667;42.872;74.622;2023-02-28T12:13:15;138.93;;;36.17;;
52798;SDS011;38667;42.872;74.622;2023-02-28T12:15:53;95.30;;;32.67;;
52798;SDS011;38667;42.872;74.622;2023-02-28T12:18:44;101.85;;;31.50;;
52798;SDS011;38667;42.872;74.622;2023-02-28T12:21:25;102.53;;;35.00;;
52798;SDS011;38667;42.872;74.622;2023-02-28T12:26:57;71.65;;;28.63;;
52798;SDS011;38667;42.872;74.622;2023-02-28T12:29:28;78.10;;;31.33;;
52798;SDS011;38667;42.872;74.622;2023-02-28T12:31:58;77.95;;;28.17;;
52798;SDS011;38667;42.872;74.622;2023-02-28T12:34:31;72.47;;;29.88;;
52798;SDS011;38667;42.872;74.622;2023-02-28T12:37:03;76.78;;;30.13;;
52798;SDS011;38667;42.872;74.622;2023-02-28T12:39:36;103.30;;;34.20;;
52798;SDS011;38667;42.872;74.622;2023-02-28T12:42:08;128.07;;;38.28;;
52798;SDS011;38667;42.872;74.622;2023-02-28T12:44:40;89.47;;;31.85;;
52798;SDS011;38667;42.872;74.622;2023-02-28T12:47:12;107.22;;;35.03;;
52798;SDS011;38667;42.872;74.622;2023-02-28T12:49:42;94.40;;;34.03;;
52798;SDS011;38667;42.872;74.622;2023-02-28T12:52:14;111.28;;;35.10;;
52798;SDS011;38667;42.872;74.622;2023-02-28T12:54:46;123.10;;;37.38;;
52798;SDS011;38667;42.872;74.622;2023-02-28T12:57:18;129.07;;;47.10;;
52798;SDS011;38667;42.872;74.622;2023-02-28T12:59:52;167.32;;;69.47;;
52798;SDS011;38667;42.872;74.622;2023-02-28T13:02:26;174.45;;;69.93;;
52798;SDS011;38667;42.872;74.622;2023-02-28T13:05:16;150.63;;;67.15;;
52798;SDS011;38667;42.872;74.622;2023-02-28T13:10:49;152.25;;;64.60;;
52798;SDS011;38667;42.872;74.622;2023-02-28T13:13:17;173.85;;;71.75;;
52798;SDS011;38667;42.872;74.622;2023-02-28T13:16:00;178.57;;;73.60;;
52798;SDS011;38667;42.872;74.622;2023-02-28T13:18:31;197.00;;;74.00;;
52798;SDS011;38667;42.872;74.622;2023-02-28T13:20:59;255.80;;;99.25;;
52798;SDS011;38667;42.872;74.622;2023-02-28T13:26:21;281.17;;;118.32;;
52798;SDS011;38667;42.872;74.622;2023-02-28T13:40:48;191.45;;;79.55;;
52798;SDS011;38667;42.872;74.622;2023-02-28T13:43:16;184.77;;;77.68;;
52798;SDS011;38667;42.872;74.622;2023-02-28T13:48:33;190.85;;;69.28;;
52798;SDS011;38667;42.872;74.622;2023-02-28T13:51:01;277.08;;;100.13;;
52798;SDS011;38667;42.872;74.622;2023-02-28T13:54:04;246.20;;;90.30;;
52798;SDS011;38667;42.872;74.622;2023-02-28T13:56:45;179.18;;;67.43;;
52798;SDS011;38667;42.872;74.622;2023-02-28T13:59:21;181.35;;;70.72;;
52798;SDS011;38667;42.872;74.622;2023-02-28T14:02:02;229.57;;;91.18;;
52798;SDS011;38667;42.872;74.622;2023-02-28T14:07:28;212.20;;;77.95;;
52798;SDS011;38667;42.872;74.622;2023-02-28T14:09:58;231.93;;;79.40;;
52798;SDS011;38667;42.872;74.622;2023-02-28T14:15:40;189.82;;;72.47;;
52798;SDS011;38667;42.872;74.622;2023-02-28T14:18:17;218.23;;;74.40;;
52798;SDS011;38667;42.872;74.622;2023-02-28T14:20:54;296.55;;;90.40;;
52798;SDS011;38667;42.872;74.622;2023-02-28T14:23:34;360.02;;;123.30;;
52798;SDS011;38667;42.872;74.622;2023-02-28T14:26:11;471.05;;;199.98;;
52798;SDS011;38667;42.872;74.622;2023-02-28T14:28:48;450.45;;;183.23;;
52798;SDS011;38667;42.872;74.622;2023-02-28T14:31:28;270.98;;;107.03;;
52798;SDS011;38667;42.872;74.622;2023-02-28T14:34:04;234.50;;;80.30;;
52798;SDS011;38667;42.872;74.622;2023-02-28T14:36:51;244.13;;;87.45;;
52798;SDS011;38667;42.872;74.622;2023-02-28T14:39:21;263.50;;;94.07;;
52798;SDS011;38667;42.872;74.622;2023-02-28T14:41:49;308.10;;;98.18;;
52798;SDS011;38667;42.872;74.622;2023-02-28T14:44:16;261.30;;;89.22;;
52798;SDS011;38667;42.872;74.622;2023-02-28T14:46:45;257.73;;;97.70;;
52798;SDS011;38667;42.872;74.622;2023-02-28T14:49:15;262.85;;;104.32;;
52798;SDS011;38667;42.872;74.622;2023-02-28T14:51:44;217.90;;;80.78;;
52798;SDS011;38667;42.872;74.622;2023-02-28T14:54:12;188.30;;;72.88;;
52798;SDS011;38667;42.872;74.622;2023-02-28T14:56:42;212.27;;;87.47;;
52798;SDS011;38667;42.872;74.622;2023-02-28T14:59:22;235.25;;;90.05;;
52798;SDS011;38667;42.872;74.622;2023-02-28T15:01:51;185.75;;;72.68;;